Terminal Aerodrome Forecast
Issued by NWS Cleveland, OH

Home | Current Version | Previous Version | Text Only | Print | Product List | Glossary Off
Versions: 1 2 3 4 5 6 7 8 9 10 11 12 13 14 15 16 17 18 19

000
FTUS41 KCLE 290830 AAA
TAFERI
TAF AMD
KERI 290830Z 2909/3006 07006KT P6SM SCT025 OVC045
     FM291700 03010KT 6SM -SHRA OVC015
     FM292200 02008KT P6SM OVC028
     FM300200 VRB04KT P6SM BKN050=

USA.gov is the U.S. government's official web portal to all federal, state and local government web resources and services.